Weather at Oulu Airport

Public forecast

Using degrees Celsius for public forecast. Weather courtesy of forecast.io.

Current aviation weather report (METAR) for Oulu Airport

Retrieved 2021/01/27 18:20 UTC (24 minutes ago):

EFOU 271820Z AUTO 05005KT 9000 4300 -SN FEW021 M07/M08 Q1002

Aviation forecast (TAF) for Oulu Airport

Retrieved 2021/01/27 18:42 UTC (2 minutes ago):

TAF EFOU 271728Z 2718/2818 03006KT 8000 -SN BKN030 TEMPO 2718/2802 4000 BKN008 PROB40 2718/2724 -FZDZ BECMG 2802/2803 5000 TEMPO 2803/2815 1500 SN VV008 TEMPO 2816/2818 BKN005